sensor_id;sensor_type;location;lat;lon;timestamp;temperature;humidity
38090;DHT22;23904;52.322;10.232;2023-08-20T00:00:52;22.90;99.90
38090;DHT22;23904;52.322;10.232;2023-08-20T00:03:18;22.90;99.90
38090;DHT22;23904;52.322;10.232;2023-08-20T00:05:44;22.90;99.90
38090;DHT22;23904;52.322;10.232;2023-08-20T00:08:09;22.90;99.90
38090;DHT22;23904;52.322;10.232;2023-08-20T00:10:35;22.90;99.90
38090;DHT22;23904;52.322;10.232;2023-08-20T00:13:01;22.90;99.90
38090;DHT22;23904;52.322;10.232;2023-08-20T00:15:26;22.90;99.90
38090;DHT22;23904;52.322;10.232;2023-08-20T00:17:54;22.80;99.90
38090;DHT22;23904;52.322;10.232;2023-08-20T00:20:21;22.80;99.90
38090;DHT22;23904;52.322;10.232;2023-08-20T00:22:47;22.70;99.90
38090;DHT22;23904;52.322;10.232;2023-08-20T00:25:14;22.70;99.90
38090;DHT22;23904;52.322;10.232;2023-08-20T00:27:41;22.70;99.90
38090;DHT22;23904;52.322;10.232;2023-08-20T00:30:09;22.70;99.90
38090;DHT22;23904;52.322;10.232;2023-08-20T00:32:36;22.80;99.90
38090;DHT22;23904;52.322;10.232;2023-08-20T00:35:02;22.80;99.90
38090;DHT22;23904;52.322;10.232;2023-08-20T00:37:29;22.70;99.90
38090;DHT22;23904;52.322;10.232;2023-08-20T00:39:55;22.70;99.90
38090;DHT22;23904;52.322;10.232;2023-08-20T00:42:20;22.70;99.90
38090;DHT22;23904;52.322;10.232;2023-08-20T00:44:46;22.70;99.90
38090;DHT22;23904;52.322;10.232;2023-08-20T00:47:13;22.60;99.90
38090;DHT22;23904;52.322;10.232;2023-08-20T00:49:39;22.70;99.90
38090;DHT22;23904;52.322;10.232;2023-08-20T00:52:08;22.60;99.90
38090;DHT22;23904;52.322;10.232;2023-08-20T00:54:34;22.70;99.90
38090;DHT22;23904;52.322;10.232;2023-08-20T00:57:01;22.70;99.90
38090;DHT22;23904;52.322;10.232;2023-08-20T00:59:29;22.70;99.90
38090;DHT22;23904;52.322;10.232;2023-08-20T01:01:55;22.60;99.90
38090;DHT22;23904;52.322;10.232;2023-08-20T01:04:21;22.60;99.90
38090;DHT22;23904;52.322;10.232;2023-08-20T01:07:13;22.50;99.90
38090;DHT22;23904;52.322;10.232;2023-08-20T01:10:08;22.40;99.90
38090;DHT22;23904;52.322;10.232;2023-08-20T01:12:39;22.40;99.90
38090;DHT22;23904;52.322;10.232;2023-08-20T01:15:06;22.50;99.90
38090;DHT22;23904;52.322;10.232;2023-08-20T01:17:39;22.40;99.90
38090;DHT22;23904;52.322;10.232;2023-08-20T01:20:09;22.50;99.90
38090;DHT22;23904;52.322;10.232;2023-08-20T01:26:07;22.40;99.90
38090;DHT22;23904;52.322;10.232;2023-08-20T01:28:41;22.40;99.90
38090;DHT22;23904;52.322;10.232;2023-08-20T01:31:09;22.40;99.90
38090;DHT22;23904;52.322;10.232;2023-08-20T01:33:35;22.40;99.90
38090;DHT22;23904;52.322;10.232;2023-08-20T01:36:01;22.40;99.90
38090;DHT22;23904;52.322;10.232;2023-08-20T01:38:27;22.40;99.90
38090;DHT22;23904;52.322;10.232;2023-08-20T01:40:52;22.50;99.90
38090;DHT22;23904;52.322;10.232;2023-08-20T01:43:18;22.50;99.90
38090;DHT22;23904;52.322;10.232;2023-08-20T01:45:44;22.40;99.90
38090;DHT22;23904;52.322;10.232;2023-08-20T01:48:09;22.40;99.90
38090;DHT22;23904;52.322;10.232;2023-08-20T01:50:35;22.50;99.90
38090;DHT22;23904;52.322;10.232;2023-08-20T01:53:02;22.40;99.90
38090;DHT22;23904;52.322;10.232;2023-08-20T01:55:31;22.40;99.90
38090;DHT22;23904;52.322;10.232;2023-08-20T01:57:56;22.40;99.90
38090;DHT22;23904;52.322;10.232;2023-08-20T02:00:22;22.40;99.90
38090;DHT22;23904;52.322;10.232;2023-08-20T02:02:47;22.30;99.90
38090;DHT22;23904;52.322;10.232;2023-08-20T02:05:13;22.30;99.90
38090;DHT22;23904;52.322;10.232;2023-08-20T02:07:39;22.20;99.90
38090;DHT22;23904;52.322;10.232;2023-08-20T02:10:05;22.20;99.90
38090;DHT22;23904;52.322;10.232;2023-08-20T02:12:31;22.20;99.90
38090;DHT22;23904;52.322;10.232;2023-08-20T02:14:56;22.20;99.90
38090;DHT22;23904;52.322;10.232;2023-08-20T02:17:22;22.20;99.90
38090;DHT22;23904;52.322;10.232;2023-08-20T02:19:48;22.10;99.90
38090;DHT22;23904;52.322;10.232;2023-08-20T02:22:14;22.10;99.90
38090;DHT22;23904;52.322;10.232;2023-08-20T02:24:40;22.10;99.90
38090;DHT22;23904;52.322;10.232;2023-08-20T02:27:05;21.90;99.90
38090;DHT22;23904;52.322;10.232;2023-08-20T02:29:31;21.90;99.90
38090;DHT22;23904;52.322;10.232;2023-08-20T02:31:56;21.90;99.90
38090;DHT22;23904;52.322;10.232;2023-08-20T02:34:22;21.90;99.90
38090;DHT22;23904;52.322;10.232;2023-08-20T02:36:48;21.90;99.90
38090;DHT22;23904;52.322;10.232;2023-08-20T02:39:14;21.80;99.90
38090;DHT22;23904;52.322;10.232;2023-08-20T02:41:42;21.80;99.90
38090;DHT22;23904;52.322;10.232;2023-08-20T02:44:07;21.70;99.90
38090;DHT22;23904;52.322;10.232;2023-08-20T02:46:33;21.70;99.90
38090;DHT22;23904;52.322;10.232;2023-08-20T02:48:58;21.70;99.90
38090;DHT22;23904;52.322;10.232;2023-08-20T02:51:24;21.60;99.90
38090;DHT22;23904;52.322;10.232;2023-08-20T02:53:50;21.60;99.90
38090;DHT22;23904;52.322;10.232;2023-08-20T02:56:15;21.50;99.90
38090;DHT22;23904;52.322;10.232;2023-08-20T02:58:41;21.50;99.90
38090;DHT22;23904;52.322;10.232;2023-08-20T03:01:06;21.40;99.90
38090;DHT22;23904;52.322;10.232;2023-08-20T03:03:32;21.40;99.90
38090;DHT22;23904;52.322;10.232;2023-08-20T03:05:57;21.30;99.90
38090;DHT22;23904;52.322;10.232;2023-08-20T03:08:23;21.20;99.90
38090;DHT22;23904;52.322;10.232;2023-08-20T03:10:49;21.20;99.90
38090;DHT22;23904;52.322;10.232;2023-08-20T03:13:14;21.20;99.90
38090;DHT22;23904;52.322;10.232;2023-08-20T03:15:40;21.20;99.90
38090;DHT22;23904;52.322;10.232;2023-08-20T03:18:06;21.20;99.90
38090;DHT22;23904;52.322;10.232;2023-08-20T03:20:31;21.20;99.90
38090;DHT22;23904;52.322;10.232;2023-08-20T03:22:57;21.20;99.90
38090;DHT22;23904;52.322;10.232;2023-08-20T03:25:23;21.30;99.90
38090;DHT22;23904;52.322;10.232;2023-08-20T03:27:51;21.30;99.90
38090;DHT22;23904;52.322;10.232;2023-08-20T03:30:17;21.30;99.90
38090;DHT22;23904;52.322;10.232;2023-08-20T03:32:43;21.30;99.90
38090;DHT22;23904;52.322;10.232;2023-08-20T03:35:08;21.30;99.90
38090;DHT22;23904;52.322;10.232;2023-08-20T03:37:34;21.30;99.90
38090;DHT22;23904;52.322;10.232;2023-08-20T03:40:00;21.40;99.90
38090;DHT22;23904;52.322;10.232;2023-08-20T03:42:25;21.30;99.90
38090;DHT22;23904;52.322;10.232;2023-08-20T03:44:51;21.30;99.90
38090;DHT22;23904;52.322;10.232;2023-08-20T03:47:16;21.30;99.90
38090;DHT22;23904;52.322;10.232;2023-08-20T03:49:46;21.30;99.90
38090;DHT22;23904;52.322;10.232;2023-08-20T03:52:13;21.20;99.90
38090;DHT22;23904;52.322;10.232;2023-08-20T03:54:38;21.20;99.90
38090;DHT22;23904;52.322;10.232;2023-08-20T03:57:04;21.20;99.90
38090;DHT22;23904;52.322;10.232;2023-08-20T03:59:30;21.20;99.90
38090;DHT22;23904;52.322;10.232;2023-08-20T04:01:56;21.10;99.90
38090;DHT22;23904;52.322;10.232;2023-08-20T04:04:22;21.10;99.90
38090;DHT22;23904;52.322;10.232;2023-08-20T04:06:47;21.10;99.90
38090;DHT22;23904;52.322;10.232;2023-08-20T04:09:13;21.00;99.90
38090;DHT22;23904;52.322;10.232;2023-08-20T04:11:38;21.00;99.90
38090;DHT22;23904;52.322;10.232;2023-08-20T04:14:04;21.00;99.90
38090;DHT22;23904;52.322;10.232;2023-08-20T04:16:30;21.00;99.90
38090;DHT22;23904;52.322;10.232;2023-08-20T04:18:55;21.00;99.90
38090;DHT22;23904;52.322;10.232;2023-08-20T04:21:21;20.90;99.90
38090;DHT22;23904;52.322;10.232;2023-08-20T04:23:47;20.90;99.90
38090;DHT22;23904;52.322;10.232;2023-08-20T04:26:12;20.90;99.90
38090;DHT22;23904;52.322;10.232;2023-08-20T04:28:38;21.00;99.90
38090;DHT22;23904;52.322;10.232;2023-08-20T04:31:03;21.00;99.90
38090;DHT22;23904;52.322;10.232;2023-08-20T04:33:29;21.00;99.90
38090;DHT22;23904;52.322;10.232;2023-08-20T04:35:55;21.00;99.90
38090;DHT22;23904;52.322;10.232;2023-08-20T04:38:20;21.00;99.90
38090;DHT22;23904;52.322;10.232;2023-08-20T04:40:47;21.00;99.90
38090;DHT22;23904;52.322;10.232;2023-08-20T04:43:13;21.00;99.90
38090;DHT22;23904;52.322;10.232;2023-08-20T04:45:39;21.00;99.90
38090;DHT22;23904;52.322;10.232;2023-08-20T04:48:04;21.00;99.90
38090;DHT22;23904;52.322;10.232;2023-08-20T04:50:30;21.00;99.90
38090;DHT22;23904;52.322;10.232;2023-08-20T04:52:56;21.00;99.90
38090;DHT22;23904;52.322;10.232;2023-08-20T04:55:24;21.10;99.90
38090;DHT22;23904;52.322;10.232;2023-08-20T04:57:49;21.10;99.90
38090;DHT22;23904;52.322;10.232;2023-08-20T05:00:15;21.10;99.90
38090;DHT22;23904;52.322;10.232;2023-08-20T05:02:41;21.00;99.90
38090;DHT22;23904;52.322;10.232;2023-08-20T05:05:07;21.00;99.90
38090;DHT22;23904;52.322;10.232;2023-08-20T05:07:32;21.00;99.90
38090;DHT22;23904;52.322;10.232;2023-08-20T05:09:58;21.00;99.90
38090;DHT22;23904;52.322;10.232;2023-08-20T05:12:24;21.00;99.90
38090;DHT22;23904;52.322;10.232;2023-08-20T05:14:49;21.00;99.90
38090;DHT22;23904;52.322;10.232;2023-08-20T05:17:15;21.00;99.90
38090;DHT22;23904;52.322;10.232;2023-08-20T05:19:40;21.00;99.90
38090;DHT22;23904;52.322;10.232;2023-08-20T05:22:06;21.00;99.90
38090;DHT22;23904;52.322;10.232;2023-08-20T05:24:31;21.00;99.90
38090;DHT22;23904;52.322;10.232;2023-08-20T05:27:07;21.10;99.90
38090;DHT22;23904;52.322;10.232;2023-08-20T05:29:34;21.20;99.90
38090;DHT22;23904;52.322;10.232;2023-08-20T05:32:00;21.20;99.90
38090;DHT22;23904;52.322;10.232;2023-08-20T05:34:26;21.20;99.90
38090;DHT22;23904;52.322;10.232;2023-08-20T05:36:51;21.20;99.90
38090;DHT22;23904;52.322;10.232;2023-08-20T05:39:17;21.10;99.90
38090;DHT22;23904;52.322;10.232;2023-08-20T05:41:43;21.20;99.90
38090;DHT22;23904;52.322;10.232;2023-08-20T05:44:09;21.20;99.90
38090;DHT22;23904;52.322;10.232;2023-08-20T05:46:35;21.30;99.90
38090;DHT22;23904;52.322;10.232;2023-08-20T05:49:01;21.40;99.90
38090;DHT22;23904;52.322;10.232;2023-08-20T05:51:27;21.50;99.90
38090;DHT22;23904;52.322;10.232;2023-08-20T05:53:52;21.50;99.90
38090;DHT22;23904;52.322;10.232;2023-08-20T05:56:18;21.60;99.90
38090;DHT22;23904;52.322;10.232;2023-08-20T05:58:43;21.70;99.90
38090;DHT22;23904;52.322;10.232;2023-08-20T06:01:09;21.70;99.90
38090;DHT22;23904;52.322;10.232;2023-08-20T06:03:34;21.80;99.90
38090;DHT22;23904;52.322;10.232;2023-08-20T06:06:00;21.70;99.90
38090;DHT22;23904;52.322;10.232;2023-08-20T06:08:26;21.80;99.90
38090;DHT22;23904;52.322;10.232;2023-08-20T06:10:51;21.80;99.90
38090;DHT22;23904;52.322;10.232;2023-08-20T06:13:17;21.90;99.90
38090;DHT22;23904;52.322;10.232;2023-08-20T06:15:43;22.00;99.90
38090;DHT22;23904;52.322;10.232;2023-08-20T06:18:08;22.00;99.90
38090;DHT22;23904;52.322;10.232;2023-08-20T06:20:34;22.00;99.90
38090;DHT22;23904;52.322;10.232;2023-08-20T06:22:59;21.90;99.90
38090;DHT22;23904;52.322;10.232;2023-08-20T06:25:25;21.90;99.90
38090;DHT22;23904;52.322;10.232;2023-08-20T06:27:50;21.90;99.90
38090;DHT22;23904;52.322;10.232;2023-08-20T06:30:16;22.00;99.90
38090;DHT22;23904;52.322;10.232;2023-08-20T06:32:43;22.10;99.90
38090;DHT22;23904;52.322;10.232;2023-08-20T06:35:09;22.10;99.90
38090;DHT22;23904;52.322;10.232;2023-08-20T06:37:35;22.10;99.90
38090;DHT22;23904;52.322;10.232;2023-08-20T06:40:01;22.10;99.90
38090;DHT22;23904;52.322;10.232;2023-08-20T06:42:26;22.20;99.90
38090;DHT22;23904;52.322;10.232;2023-08-20T06:44:52;22.20;99.90
38090;DHT22;23904;52.322;10.232;2023-08-20T06:47:17;22.20;99.90
38090;DHT22;23904;52.322;10.232;2023-08-20T06:49:43;22.20;99.90
38090;DHT22;23904;52.322;10.232;2023-08-20T06:52:09;22.20;99.90
38090;DHT22;23904;52.322;10.232;2023-08-20T06:54:34;22.20;99.90
38090;DHT22;23904;52.322;10.232;2023-08-20T06:57:00;22.20;99.90
38090;DHT22;23904;52.322;10.232;2023-08-20T06:59:26;22.20;99.90
38090;DHT22;23904;52.322;10.232;2023-08-20T07:01:52;22.20;99.90
38090;DHT22;23904;52.322;10.232;2023-08-20T07:04:18;22.30;99.90
38090;DHT22;23904;52.322;10.232;2023-08-20T07:06:43;22.30;99.90
38090;DHT22;23904;52.322;10.232;2023-08-20T07:09:09;22.30;99.90
38090;DHT22;23904;52.322;10.232;2023-08-20T07:11:34;22.30;99.90
38090;DHT22;23904;52.322;10.232;2023-08-20T07:14:00;22.40;99.90
38090;DHT22;23904;52.322;10.232;2023-08-20T07:16:25;22.40;99.90
38090;DHT22;23904;52.322;10.232;2023-08-20T07:18:51;22.40;99.90
38090;DHT22;23904;52.322;10.232;2023-08-20T07:21:18;22.40;99.90
38090;DHT22;23904;52.322;10.232;2023-08-20T07:23:43;22.40;99.90
38090;DHT22;23904;52.322;10.232;2023-08-20T07:26:10;22.50;99.90
38090;DHT22;23904;52.322;10.232;2023-08-20T07:28:37;22.50;99.90
38090;DHT22;23904;52.322;10.232;2023-08-20T07:31:22;22.70;99.90
38090;DHT22;23904;52.322;10.232;2023-08-20T07:33:55;22.70;99.90
38090;DHT22;23904;52.322;10.232;2023-08-20T07:36:23;22.70;99.90
38090;DHT22;23904;52.322;10.232;2023-08-20T07:38:50;22.80;99.90
38090;DHT22;23904;52.322;10.232;2023-08-20T07:41:17;22.90;99.90
38090;DHT22;23904;52.322;10.232;2023-08-20T07:43:43;23.00;99.90
38090;DHT22;23904;52.322;10.232;2023-08-20T07:46:09;23.00;99.90
38090;DHT22;23904;52.322;10.232;2023-08-20T07:48:35;23.00;99.90
38090;DHT22;23904;52.322;10.232;2023-08-20T07:51:01;23.00;99.90
38090;DHT22;23904;52.322;10.232;2023-08-20T07:53:28;23.00;99.90
38090;DHT22;23904;52.322;10.232;2023-08-20T07:55:54;23.00;99.90
38090;DHT22;23904;52.322;10.232;2023-08-20T07:58:20;23.00;99.90
38090;DHT22;23904;52.322;10.232;2023-08-20T08:00:46;23.10;99.90
38090;DHT22;23904;52.322;10.232;2023-08-20T08:03:11;23.00;99.90
38090;DHT22;23904;52.322;10.232;2023-08-20T08:05:40;23.10;99.90
38090;DHT22;23904;52.322;10.232;2023-08-20T08:08:06;23.20;99.90
38090;DHT22;23904;52.322;10.232;2023-08-20T08:10:32;23.50;99.90
38090;DHT22;23904;52.322;10.232;2023-08-20T08:12:57;23.70;99.90
38090;DHT22;23904;52.322;10.232;2023-08-20T08:15:23;23.80;99.90
38090;DHT22;23904;52.322;10.232;2023-08-20T08:17:48;24.00;99.90
38090;DHT22;23904;52.322;10.232;2023-08-20T08:20:14;24.30;99.90
38090;DHT22;23904;52.322;10.232;2023-08-20T08:22:39;24.90;99.90
38090;DHT22;23904;52.322;10.232;2023-08-20T08:25:05;25.80;99.90
38090;DHT22;23904;52.322;10.232;2023-08-20T08:27:31;26.50;99.90
38090;DHT22;23904;52.322;10.232;2023-08-20T08:29:57;27.00;99.90
38090;DHT22;23904;52.322;10.232;2023-08-20T08:32:22;27.20;99.90
38090;DHT22;23904;52.322;10.232;2023-08-20T08:34:48;27.70;99.90
38090;DHT22;23904;52.322;10.232;2023-08-20T08:37:13;28.00;99.90
38090;DHT22;23904;52.322;10.232;2023-08-20T08:39:41;28.60;99.90
38090;DHT22;23904;52.322;10.232;2023-08-20T08:42:06;29.50;99.90
38090;DHT22;23904;52.322;10.232;2023-08-20T08:44:33;31.10;99.40
38090;DHT22;23904;52.322;10.232;2023-08-20T08:47:01;32.20;97.80
38090;DHT22;23904;52.322;10.232;2023-08-20T08:49:27;33.10;95.10
38090;DHT22;23904;52.322;10.232;2023-08-20T08:51:56;32.90;94.50
38090;DHT22;23904;52.322;10.232;2023-08-20T08:54:23;33.90;94.20
38090;DHT22;23904;52.322;10.232;2023-08-20T08:56:50;34.20;91.60
38090;DHT22;23904;52.322;10.232;2023-08-20T08:59:15;34.30;91.10
38090;DHT22;23904;52.322;10.232;2023-08-20T09:01:41;34.90;90.90
38090;DHT22;23904;52.322;10.232;2023-08-20T09:04:07;35.80;87.40
38090;DHT22;23904;52.322;10.232;2023-08-20T09:06:46;35.10;87.70
38090;DHT22;23904;52.322;10.232;2023-08-20T09:09:13;35.10;89.20
38090;DHT22;23904;52.322;10.232;2023-08-20T09:11:39;34.90;89.20
38090;DHT22;23904;52.322;10.232;2023-08-20T09:14:05;35.50;86.70
38090;DHT22;23904;52.322;10.232;2023-08-20T09:16:31;35.30;84.20
38090;DHT22;23904;52.322;10.232;2023-08-20T09:18:59;35.90;85.90
38090;DHT22;23904;52.322;10.232;2023-08-20T09:21:27;36.50;81.60
38090;DHT22;23904;52.322;10.232;2023-08-20T09:24:01;36.30;82.10
38090;DHT22;23904;52.322;10.232;2023-08-20T09:26:27;36.20;79.10
38090;DHT22;23904;52.322;10.232;2023-08-20T09:28:55;36.40;79.10
38090;DHT22;23904;52.322;10.232;2023-08-20T09:31:39;37.40;77.50
38090;DHT22;23904;52.322;10.232;2023-08-20T09:34:05;38.00;75.30
38090;DHT22;23904;52.322;10.232;2023-08-20T09:36:32;37.30;73.70
38090;DHT22;23904;52.322;10.232;2023-08-20T09:39:00;37.40;74.70
38090;DHT22;23904;52.322;10.232;2023-08-20T09:41:28;36.80;75.60
38090;DHT22;23904;52.322;10.232;2023-08-20T09:43:58;35.50;77.20
38090;DHT22;23904;52.322;10.232;2023-08-20T09:46:26;35.10;77.30
38090;DHT22;23904;52.322;10.232;2023-08-20T09:48:56;35.00;78.20
38090;DHT22;23904;52.322;10.232;2023-08-20T09:51:25;35.10;78.60
38090;DHT22;23904;52.322;10.232;2023-08-20T09:54:19;35.00;79.60
38090;DHT22;23904;52.322;10.232;2023-08-20T09:56:54;35.70;75.00
38090;DHT22;23904;52.322;10.232;2023-08-20T09:59:24;36.80;73.40
38090;DHT22;23904;52.322;10.232;2023-08-20T10:01:50;37.30;72.20
38090;DHT22;23904;52.322;10.232;2023-08-20T10:04:17;37.00;72.90
38090;DHT22;23904;52.322;10.232;2023-08-20T10:06:44;37.10;72.20
38090;DHT22;23904;52.322;10.232;2023-08-20T10:09:09;37.60;70.50
38090;DHT22;23904;52.322;10.232;2023-08-20T10:11:35;37.20;69.20
38090;DHT22;23904;52.322;10.232;2023-08-20T10:14:02;37.00;70.70
38090;DHT22;23904;52.322;10.232;2023-08-20T10:16:28;37.20;69.20
38090;DHT22;23904;52.322;10.232;2023-08-20T10:18:54;37.90;68.60
38090;DHT22;23904;52.322;10.232;2023-08-20T10:21:25;38.60;67.20
38090;DHT22;23904;52.322;10.232;2023-08-20T10:23:53;38.40;66.80
38090;DHT22;23904;52.322;10.232;2023-08-20T10:26:20;38.30;66.20
38090;DHT22;23904;52.322;10.232;2023-08-20T10:28:47;38.60;64.70
38090;DHT22;23904;52.322;10.232;2023-08-20T10:31:15;38.90;65.00
38090;DHT22;23904;52.322;10.232;2023-08-20T10:36:17;39.90;62.00
38090;DHT22;23904;52.322;10.232;2023-08-20T10:38:49;40.10;61.10
38090;DHT22;23904;52.322;10.232;2023-08-20T10:41:15;39.40;62.20
38090;DHT22;23904;52.322;10.232;2023-08-20T10:43:47;39.90;61.50
38090;DHT22;23904;52.322;10.232;2023-08-20T10:46:21;39.50;62.00
38090;DHT22;23904;52.322;10.232;2023-08-20T10:48:55;39.30;61.80
38090;DHT22;23904;52.322;10.232;2023-08-20T10:51:32;39.20;61.60
38090;DHT22;23904;52.322;10.232;2023-08-20T10:56:49;39.30;60.50
38090;DHT22;23904;52.322;10.232;2023-08-20T10:59:28;40.30;60.20
38090;DHT22;23904;52.322;10.232;2023-08-20T11:01:56;40.10;59.80
38090;DHT22;23904;52.322;10.232;2023-08-20T11:04:29;40.40;58.80
38090;DHT22;23904;52.322;10.232;2023-08-20T11:06:58;40.10;59.30
38090;DHT22;23904;52.322;10.232;2023-08-20T11:09:27;39.60;60.00
38090;DHT22;23904;52.322;10.232;2023-08-20T11:11:54;40.40;57.80
38090;DHT22;23904;52.322;10.232;2023-08-20T11:14:21;39.70;58.70
38090;DHT22;23904;52.322;10.232;2023-08-20T11:16:47;40.10;57.60
38090;DHT22;23904;52.322;10.232;2023-08-20T11:19:14;39.90;58.90
38090;DHT22;23904;52.322;10.232;2023-08-20T11:21:45;39.60;58.40
38090;DHT22;23904;52.322;10.232;2023-08-20T11:24:11;38.90;59.80
38090;DHT22;23904;52.322;10.232;2023-08-20T11:26:41;39.30;57.10
38090;DHT22;23904;52.322;10.232;2023-08-20T11:29:09;39.90;55.30
38090;DHT22;23904;52.322;10.232;2023-08-20T11:31:36;39.70;56.30
38090;DHT22;23904;52.322;10.232;2023-08-20T11:34:03;39.60;55.90
38090;DHT22;23904;52.322;10.232;2023-08-20T11:36:29;39.60;57.00
38090;DHT22;23904;52.322;10.232;2023-08-20T11:38:55;39.30;57.50
38090;DHT22;23904;52.322;10.232;2023-08-20T11:41:21;39.90;58.10
38090;DHT22;23904;52.322;10.232;2023-08-20T11:43:48;40.00;56.60
38090;DHT22;23904;52.322;10.232;2023-08-20T11:46:15;40.40;56.30
38090;DHT22;23904;52.322;10.232;2023-08-20T11:49:02;40.40;56.00
38090;DHT22;23904;52.322;10.232;2023-08-20T11:51:29;39.20;56.90
38090;DHT22;23904;52.322;10.232;2023-08-20T11:53:56;39.00;58.00
38090;DHT22;23904;52.322;10.232;2023-08-20T11:56:22;39.20;57.20
38090;DHT22;23904;52.322;10.232;2023-08-20T11:58:51;39.60;55.90
38090;DHT22;23904;52.322;10.232;2023-08-20T12:01:18;39.70;56.00
38090;DHT22;23904;52.322;10.232;2023-08-20T12:03:44;40.20;56.10
38090;DHT22;23904;52.322;10.232;2023-08-20T12:06:20;39.20;56.80
38090;DHT22;23904;52.322;10.232;2023-08-20T12:08:48;37.50;59.20
38090;DHT22;23904;52.322;10.232;2023-08-20T12:11:14;36.40;60.10
38090;DHT22;23904;52.322;10.232;2023-08-20T12:13:40;35.30;63.80
38090;DHT22;23904;52.322;10.232;2023-08-20T12:16:06;34.50;64.40
38090;DHT22;23904;52.322;10.232;2023-08-20T12:18:32;33.90;65.80
38090;DHT22;23904;52.322;10.232;2023-08-20T12:20:57;33.70;66.40
38090;DHT22;23904;52.322;10.232;2023-08-20T12:23:23;33.40;66.70
38090;DHT22;23904;52.322;10.232;2023-08-20T12:25:52;33.40;66.40
38090;DHT22;23904;52.322;10.232;2023-08-20T12:28:17;32.60;68.10
38090;DHT22;23904;52.322;10.232;2023-08-20T12:30:44;31.90;71.60
38090;DHT22;23904;52.322;10.232;2023-08-20T12:33:11;31.20;71.80
38090;DHT22;23904;52.322;10.232;2023-08-20T12:35:36;31.10;71.50
38090;DHT22;23904;52.322;10.232;2023-08-20T12:38:03;31.00;71.40
38090;DHT22;23904;52.322;10.232;2023-08-20T12:40:29;30.70;71.70
38090;DHT22;23904;52.322;10.232;2023-08-20T12:42:55;30.40;72.10
38090;DHT22;23904;52.322;10.232;2023-08-20T12:45:21;30.50;73.00
38090;DHT22;23904;52.322;10.232;2023-08-20T12:47:47;30.10;73.10
38090;DHT22;23904;52.322;10.232;2023-08-20T12:50:12;30.00;73.30
38090;DHT22;23904;52.322;10.232;2023-08-20T12:52:39;30.10;74.60
38090;DHT22;23904;52.322;10.232;2023-08-20T12:55:06;30.10;74.10
38090;DHT22;23904;52.322;10.232;2023-08-20T12:57:34;30.00;73.50
38090;DHT22;23904;52.322;10.232;2023-08-20T13:00:00;30.00;76.20
38090;DHT22;23904;52.322;10.232;2023-08-20T13:02:26;30.00;74.80
38090;DHT22;23904;52.322;10.232;2023-08-20T13:04:52;30.30;75.20
38090;DHT22;23904;52.322;10.232;2023-08-20T13:07:18;31.30;72.40
38090;DHT22;23904;52.322;10.232;2023-08-20T13:09:44;32.40;70.60
38090;DHT22;23904;52.322;10.232;2023-08-20T13:12:10;33.00;67.50
38090;DHT22;23904;52.322;10.232;2023-08-20T13:14:40;33.40;68.00
38090;DHT22;23904;52.322;10.232;2023-08-20T13:17:07;33.70;65.70
38090;DHT22;23904;52.322;10.232;2023-08-20T13:19:33;33.60;68.10
38090;DHT22;23904;52.322;10.232;2023-08-20T13:21:59;33.20;67.50
38090;DHT22;23904;52.322;10.232;2023-08-20T13:24:24;33.00;67.10
38090;DHT22;23904;52.322;10.232;2023-08-20T13:26:51;32.70;67.70
38090;DHT22;23904;52.322;10.232;2023-08-20T13:29:17;31.90;67.00
38090;DHT22;23904;52.322;10.232;2023-08-20T13:31:42;31.80;69.20
38090;DHT22;23904;52.322;10.232;2023-08-20T13:34:09;31.30;68.60
38090;DHT22;23904;52.322;10.232;2023-08-20T13:36:34;31.40;70.10
38090;DHT22;23904;52.322;10.232;2023-08-20T13:39:00;31.20;69.60
38090;DHT22;23904;52.322;10.232;2023-08-20T13:41:25;31.40;71.20
38090;DHT22;23904;52.322;10.232;2023-08-20T13:43:51;31.50;68.60
38090;DHT22;23904;52.322;10.232;2023-08-20T13:46:16;31.40;72.00
38090;DHT22;23904;52.322;10.232;2023-08-20T13:48:43;31.30;72.20
38090;DHT22;23904;52.322;10.232;2023-08-20T13:51:08;31.30;72.60
38090;DHT22;23904;52.322;10.232;2023-08-20T13:53:34;31.30;71.50
38090;DHT22;23904;52.322;10.232;2023-08-20T13:55:59;31.40;70.70
38090;DHT22;23904;52.322;10.232;2023-08-20T13:58:25;31.50;73.50
38090;DHT22;23904;52.322;10.232;2023-08-20T14:00:51;31.20;69.20
38090;DHT22;23904;52.322;10.232;2023-08-20T14:03:16;31.20;71.40
38090;DHT22;23904;52.322;10.232;2023-08-20T14:05:42;31.40;70.90
38090;DHT22;23904;52.322;10.232;2023-08-20T14:08:07;31.60;69.60
38090;DHT22;23904;52.322;10.232;2023-08-20T14:10:33;31.70;70.30
38090;DHT22;23904;52.322;10.232;2023-08-20T14:12:58;31.70;68.50
38090;DHT22;23904;52.322;10.232;2023-08-20T14:15:24;31.70;68.70
38090;DHT22;23904;52.322;10.232;2023-08-20T14:17:50;31.50;71.30
38090;DHT22;23904;52.322;10.232;2023-08-20T14:20:16;31.30;72.00
38090;DHT22;23904;52.322;10.232;2023-08-20T14:22:42;31.20;71.60
38090;DHT22;23904;52.322;10.232;2023-08-20T14:25:08;31.20;71.30
38090;DHT22;23904;52.322;10.232;2023-08-20T14:27:33;30.70;72.10
38090;DHT22;23904;52.322;10.232;2023-08-20T14:29:59;30.50;71.20
38090;DHT22;23904;52.322;10.232;2023-08-20T14:32:24;30.30;73.50
38090;DHT22;23904;52.322;10.232;2023-08-20T14:34:50;30.20;76.00
38090;DHT22;23904;52.322;10.232;2023-08-20T14:37:15;29.90;77.60
38090;DHT22;23904;52.322;10.232;2023-08-20T14:39:41;29.80;77.80
38090;DHT22;23904;52.322;10.232;2023-08-20T14:42:07;29.60;76.20
38090;DHT22;23904;52.322;10.232;2023-08-20T14:44:33;30.00;74.80
38090;DHT22;23904;52.322;10.232;2023-08-20T14:46:58;30.40;76.50
38090;DHT22;23904;52.322;10.232;2023-08-20T14:49:24;30.70;75.70
38090;DHT22;23904;52.322;10.232;2023-08-20T14:51:50;30.90;74.60
38090;DHT22;23904;52.322;10.232;2023-08-20T14:54:15;30.90;74.90
38090;DHT22;23904;52.322;10.232;2023-08-20T14:56:41;30.80;74.00
38090;DHT22;23904;52.322;10.232;2023-08-20T14:59:07;30.70;73.60
38090;DHT22;23904;52.322;10.232;2023-08-20T15:01:35;30.70;74.10
38090;DHT22;23904;52.322;10.232;2023-08-20T15:04:00;30.90;72.30
38090;DHT22;23904;52.322;10.232;2023-08-20T15:06:26;30.70;74.80
38090;DHT22;23904;52.322;10.232;2023-08-20T15:08:52;30.60;75.40
38090;DHT22;23904;52.322;10.232;2023-08-20T15:11:18;30.60;74.90
38090;DHT22;23904;52.322;10.232;2023-08-20T15:13:44;30.50;75.80
38090;DHT22;23904;52.322;10.232;2023-08-20T15:16:09;30.50;75.80
38090;DHT22;23904;52.322;10.232;2023-08-20T15:18:35;30.20;75.10
38090;DHT22;23904;52.322;10.232;2023-08-20T15:21:00;29.90;76.10